createdAt,value
2018-12-31T00:00:49.969Z,33.5
2018-12-31T00:02:50.011Z,33.5
2018-12-31T00:04:50.291Z,30.1
2018-12-31T00:06:49.572Z,30.1
2018-12-31T00:08:49.659Z,31.2
2018-12-31T00:10:49.693Z,32.9
2018-12-31T00:12:49.657Z,32.5
2018-12-31T00:14:49.594Z,32.5
2018-12-31T00:16:49.904Z,35.8
2018-12-31T00:18:49.882Z,35.8
2018-12-31T00:20:49.851Z,36.2
2018-12-31T00:22:49.785Z,32.2
2018-12-31T00:24:49.792Z,32.2
2018-12-31T00:26:50.066Z,36.2
2018-12-31T00:28:50.062Z,36.2
2018-12-31T00:30:50.057Z,38.2
2018-12-31T00:32:50.114Z,36.8
2018-12-31T00:34:50.302Z,33.6
2018-12-31T00:36:49.581Z,33.6
2018-12-31T00:38:49.596Z,37.6
2018-12-31T00:40:49.528Z,34.9
2018-12-31T00:42:49.632Z,36.4
2018-12-31T00:44:49.691Z,37.9
2018-12-31T00:46:49.849Z,37.9
2018-12-31T00:48:49.779Z,36.4
2018-12-31T00:50:49.797Z,37.4
2018-12-31T00:52:49.810Z,35.0
2018-12-31T00:54:49.831Z,35.0
2018-12-31T00:56:50.098Z,38.3
2018-12-31T00:58:50.105Z,37.6
2018-12-31T01:00:50.054Z,35.7
2018-12-31T01:02:50.097Z,38.0
2018-12-31T01:04:49.493Z,38.0
2018-12-31T01:06:49.735Z,39.7
2018-12-31T01:08:49.691Z,37.6
2018-12-31T01:10:49.663Z,35.6
2018-12-31T01:12:49.767Z,37.7
2018-12-31T01:14:49.685Z,37.8
2018-12-31T01:16:49.771Z,37.8
2018-12-31T01:18:49.761Z,39.3
2018-12-31T01:20:49.766Z,41.2
2018-12-31T01:22:49.741Z,42.0
2018-12-31T01:24:49.670Z,42.0
2018-12-31T01:26:49.860Z,43.0
2018-12-31T01:28:49.860Z,45.3
2018-12-31T01:30:49.951Z,43.9
2018-12-31T01:32:49.941Z,43.9
2018-12-31T01:34:50.237Z,43.3
2018-12-31T01:36:49.474Z,44.6
2018-12-31T01:38:49.536Z,41.7
2018-12-31T01:40:49.562Z,49.1
2018-12-31T01:42:49.569Z,45.5
2018-12-31T01:44:49.557Z,45.5
2018-12-31T01:46:49.841Z,46.6
2018-12-31T01:48:49.859Z,45.4
2018-12-31T01:50:49.810Z,45.4
2018-12-31T01:52:49.772Z,47.9
2018-12-31T01:54:49.739Z,47.9
2018-12-31T01:56:49.953Z,48.3
2018-12-31T01:58:49.925Z,46.7
2018-12-31T02:00:49.929Z,51.4
2018-12-31T02:02:49.963Z,50.2
2018-12-31T02:04:50.273Z,50.2
2018-12-31T02:06:49.504Z,50.4
2018-12-31T02:08:49.565Z,53.6
2018-12-31T02:10:49.618Z,56.5
2018-12-31T02:12:49.720Z,56.5
2018-12-31T02:14:50.071Z,52.1
2018-12-31T02:16:50.424Z,57.0
2018-12-31T02:18:49.444Z,57.7
2018-12-31T02:20:49.462Z,56.1
2018-12-31T02:22:49.574Z,56.1
2018-12-31T02:24:49.618Z,56.9
2018-12-31T02:26:50.026Z,54.7
2018-12-31T02:28:50.084Z,50.0
2018-12-31T02:30:50.145Z,52.7
2018-12-31T02:32:50.199Z,52.7
2018-12-31T02:34:49.508Z,54.8
2018-12-31T02:36:49.705Z,54.8
2018-12-31T02:38:49.716Z,54.9
2018-12-31T02:40:49.678Z,54.9
2018-12-31T02:42:49.648Z,55.3
2018-12-31T02:44:49.629Z,55.3
2018-12-31T02:46:49.901Z,54.4
2018-12-31T02:48:49.842Z,54.4
2018-12-31T02:50:49.851Z,56.3
2018-12-31T02:52:49.859Z,56.3
2018-12-31T02:54:49.848Z,51.7
2018-12-31T02:56:50.090Z,57.6
2018-12-31T02:58:50.014Z,57.6
2018-12-31T03:00:50.049Z,53.8
2018-12-31T03:02:49.979Z,51.6
2018-12-31T03:04:50.226Z,55.4
2018-12-31T03:06:50.395Z,55.4
2018-12-31T03:08:49.506Z,54.8
2018-12-31T03:10:49.427Z,51.8
2018-12-31T03:12:49.453Z,54.1
2018-12-31T03:14:49.543Z,51.6
2018-12-31T03:16:49.741Z,51.8
2018-12-31T03:18:49.706Z,51.8
2018-12-31T03:20:49.678Z,51.8
2018-12-31T03:22:49.721Z,53.8
2018-12-31T03:24:49.661Z,49.0
2018-12-31T03:26:49.894Z,50.0
2018-12-31T03:28:49.874Z,50.1
2018-12-31T03:30:49.899Z,50.1
2018-12-31T03:32:49.880Z,51.1
2018-12-31T03:34:50.269Z,48.4
2018-12-31T03:36:49.494Z,47.5
2018-12-31T03:38:49.461Z,47.5
2018-12-31T03:40:49.489Z,47.7
2018-12-31T03:42:49.462Z,47.5
2018-12-31T03:44:50.408Z,49.3
2018-12-31T03:46:49.721Z,49.4
2018-12-31T03:48:49.662Z,49.4
2018-12-31T03:50:49.655Z,47.1
2018-12-31T03:52:49.642Z,47.1
2018-12-31T03:54:49.706Z,48.1
2018-12-31T03:56:50.483Z,48.1
2018-12-31T03:58:49.554Z,48.7
2018-12-31T04:00:49.592Z,43.5
2018-12-31T04:02:49.568Z,46.9
2018-12-31T04:04:49.948Z,47.0
2018-12-31T04:06:50.143Z,47.0
2018-12-31T04:08:50.142Z,44.2
2018-12-31T04:10:50.222Z,46.6
2018-12-31T04:12:50.187Z,40.2
2018-12-31T04:14:50.275Z,43.0
2018-12-31T04:16:49.567Z,43.0
2018-12-31T04:18:49.575Z,43.2
2018-12-31T04:20:49.562Z,42.8
2018-12-31T04:22:49.535Z,43.9
2018-12-31T04:24:49.595Z,43.9
2018-12-31T04:26:49.877Z,39.2
2018-12-31T04:28:49.838Z,39.2
2018-12-31T04:30:49.817Z,42.5
2018-12-31T04:32:49.811Z,42.2
2018-12-31T04:34:50.133Z,42.2
2018-12-31T04:36:49.495Z,41.2
2018-12-31T04:38:49.503Z,41.2
2018-12-31T04:40:49.572Z,40.8
2018-12-31T04:42:49.732Z,41.8
2018-12-31T04:44:49.682Z,41.8
2018-12-31T04:46:49.854Z,46.5
2018-12-31T04:48:49.837Z,46.5
2018-12-31T04:50:49.889Z,45.2
2018-12-31T04:52:49.871Z,42.7
2018-12-31T04:54:49.908Z,43.9
2018-12-31T04:56:50.107Z,43.9
2018-12-31T04:58:50.073Z,46.1
2018-12-31T05:00:50.084Z,47.1
2018-12-31T05:02:50.068Z,44.4
2018-12-31T05:04:50.382Z,44.4
2018-12-31T05:06:49.669Z,45.5
2018-12-31T05:08:49.675Z,42.3
2018-12-31T05:10:49.676Z,46.3
2018-12-31T05:12:49.757Z,43.8
2018-12-31T05:14:49.722Z,43.8
2018-12-31T05:16:49.998Z,45.3
2018-12-31T05:18:49.989Z,48.1
2018-12-31T05:20:50.015Z,48.1
2018-12-31T05:22:50.045Z,44.5
2018-12-31T05:24:50.071Z,44.5
2018-12-31T05:26:50.136Z,44.5
2018-12-31T05:28:50.109Z,47.3
2018-12-31T05:30:50.027Z,45.0
2018-12-31T05:32:50.017Z,45.0
2018-12-31T05:34:50.184Z,44.7
2018-12-31T05:36:50.285Z,45.4
2018-12-31T05:38:50.309Z,48.7
2018-12-31T05:40:50.200Z,48.9
2018-12-31T05:42:50.170Z,47.7
2018-12-31T05:44:50.144Z,47.7
2018-12-31T05:46:50.366Z,47.2
2018-12-31T05:48:50.457Z,48.4
2018-12-31T05:50:49.571Z,44.9
2018-12-31T05:52:49.571Z,46.9
2018-12-31T05:54:49.587Z,46.9
2018-12-31T05:56:49.833Z,46.9
2018-12-31T05:58:49.944Z,45.3
2018-12-31T06:00:49.896Z,45.3
2018-12-31T06:02:49.923Z,41.9
2018-12-31T06:04:50.237Z,41.9
2018-12-31T06:06:49.529Z,42.5
2018-12-31T06:08:49.516Z,42.5
2018-12-31T06:10:49.530Z,41.6
2018-12-31T06:12:49.638Z,39.5
2018-12-31T06:14:49.603Z,39.5
2018-12-31T06:16:49.858Z,39.5
2018-12-31T06:18:49.872Z,42.2
2018-12-31T06:20:49.890Z,41.4
2018-12-31T06:22:49.854Z,42.4
2018-12-31T06:24:49.867Z,42.4
2018-12-31T06:26:49.999Z,42.6
2018-12-31T06:28:49.995Z,40.7
2018-12-31T06:30:49.974Z,41.2
2018-12-31T06:32:49.970Z,41.2
2018-12-31T06:34:50.295Z,36.0
2018-12-31T06:36:50.258Z,36.0
2018-12-31T06:38:50.207Z,34.3
2018-12-31T06:40:50.214Z,34.3
2018-12-31T06:42:50.178Z,40.8
2018-12-31T06:44:50.171Z,41.4
2018-12-31T06:46:49.476Z,37.1
2018-12-31T06:48:49.468Z,40.3
2018-12-31T06:50:49.459Z,40.3
2018-12-31T06:52:49.517Z,35.9
2018-12-31T06:54:49.488Z,38.6
2018-12-31T06:56:49.754Z,37.4
2018-12-31T06:58:49.819Z,37.4
2018-12-31T07:00:49.822Z,31.9
2018-12-31T07:02:49.809Z,31.9
2018-12-31T07:04:50.124Z,36.6
2018-12-31T07:06:50.218Z,33.0
2018-12-31T07:08:50.252Z,31.1
2018-12-31T07:10:50.293Z,30.8
2018-12-31T07:12:50.259Z,30.8
2018-12-31T07:14:50.313Z,31.0
2018-12-31T07:16:49.437Z,32.7
2018-12-31T07:18:49.452Z,30.8
2018-12-31T07:20:49.461Z,30.8
2018-12-31T07:22:49.518Z,31.0
2018-12-31T07:24:49.564Z,29.7
2018-12-31T07:26:49.720Z,27.8
2018-12-31T07:28:49.813Z,29.6
2018-12-31T07:30:49.811Z,29.6
2018-12-31T07:32:49.766Z,30.4
2018-12-31T07:34:50.040Z,30.4
2018-12-31T07:36:50.249Z,28.9
2018-12-31T07:38:50.430Z,28.9
2018-12-31T07:40:50.396Z,28.9
2018-12-31T07:42:50.453Z,28.9
2018-12-31T07:44:50.388Z,28.1
2018-12-31T07:46:49.557Z,28.1
2018-12-31T07:48:49.566Z,28.0
2018-12-31T07:50:49.605Z,27.9
2018-12-31T07:52:49.756Z,29.2
2018-12-31T07:54:49.833Z,29.2
2018-12-31T07:56:49.953Z,28.9
2018-12-31T07:58:49.894Z,31.9
2018-12-31T08:00:49.916Z,29.2
2018-12-31T08:02:49.951Z,27.5
2018-12-31T08:04:50.239Z,32.9
2018-12-31T08:06:49.446Z,32.9
2018-12-31T08:08:49.578Z,27.4
2018-12-31T08:10:49.552Z,27.4
2018-12-31T08:12:49.582Z,27.1
2018-12-31T08:14:49.615Z,25.1
2018-12-31T08:16:49.767Z,27.1
2018-12-31T08:18:49.719Z,27.1
2018-12-31T08:20:49.735Z,26.4
2018-12-31T08:22:49.697Z,24.3
2018-12-31T08:24:49.648Z,23.2
2018-12-31T08:26:49.907Z,23.2
2018-12-31T08:28:49.948Z,24.4
2018-12-31T08:30:49.904Z,23.8
2018-12-31T08:32:49.901Z,23.6
2018-12-31T08:34:50.200Z,23.6
2018-12-31T08:36:50.376Z,20.6
2018-12-31T08:38:50.334Z,20.6
2018-12-31T08:40:50.354Z,20.3
2018-12-31T08:42:50.307Z,20.1
2018-12-31T08:44:50.355Z,20.1
2018-12-31T08:46:49.639Z,20.1
2018-12-31T08:48:49.660Z,20.1
2018-12-31T08:50:49.674Z,18.2
2018-12-31T08:52:49.632Z,20.1
2018-12-31T08:54:49.614Z,19.3
2018-12-31T08:56:49.740Z,18.0
2018-12-31T08:58:49.737Z,18.0
2018-12-31T09:00:49.710Z,17.6
2018-12-31T09:02:49.757Z,19.7
2018-12-31T09:04:49.988Z,18.0
2018-12-31T09:06:50.187Z,18.0
2018-12-31T09:08:50.149Z,18.8
2018-12-31T09:10:50.203Z,16.0
2018-12-31T09:12:50.178Z,16.4
2018-12-31T09:14:50.258Z,16.4
2018-12-31T09:16:49.568Z,17.2
2018-12-31T09:18:49.608Z,16.4
2018-12-31T09:20:49.760Z,16.3
2018-12-31T09:22:49.766Z,16.8
2018-12-31T09:24:49.731Z,16.8
2018-12-31T09:26:49.890Z,14.8
2018-12-31T09:28:49.868Z,15.3
2018-12-31T09:30:49.802Z,14.6
2018-12-31T09:32:49.745Z,14.6
2018-12-31T09:34:50.022Z,14.6
2018-12-31T09:36:50.212Z,14.3
2018-12-31T09:38:50.203Z,14.4
2018-12-31T09:40:50.153Z,13.4
2018-12-31T09:42:50.195Z,14.0
2018-12-31T09:44:50.226Z,14.0
2018-12-31T09:46:49.459Z,13.2
2018-12-31T09:48:50.400Z,16.4
2018-12-31T09:50:50.406Z,16.4
2018-12-31T09:52:50.456Z,12.6
2018-12-31T09:54:49.433Z,12.6
2018-12-31T09:56:49.703Z,12.5
2018-12-31T09:58:49.698Z,13.1
2018-12-31T10:00:49.681Z,12.3
2018-12-31T10:02:49.695Z,12.3
2018-12-31T10:04:49.988Z,12.9
2018-12-31T10:06:50.102Z,11.6
2018-12-31T10:08:50.055Z,11.8
2018-12-31T10:10:50.117Z,11.8
2018-12-31T10:12:50.119Z,11.8
2018-12-31T10:14:50.099Z,11.6
2018-12-31T10:16:50.270Z,11.1
2018-12-31T10:18:50.301Z,10.9
2018-12-31T10:20:50.225Z,10.9
2018-12-31T10:22:50.268Z,11.7
2018-12-31T10:24:50.301Z,11.4
2018-12-31T10:26:49.449Z,11.8
2018-12-31T10:28:49.468Z,11.8
2018-12-31T10:30:49.439Z,11.8
2018-12-31T10:32:49.561Z,12.8
2018-12-31T10:34:49.877Z,13.1
2018-12-31T10:36:50.127Z,13.6
2018-12-31T10:38:51.120Z,13.6
2018-12-31T10:40:50.327Z,15.4
2018-12-31T10:42:50.303Z,15.4
2018-12-31T10:44:50.244Z,14.5
2018-12-31T10:46:49.584Z,15.2
2018-12-31T10:48:49.560Z,15.2
2018-12-31T10:50:49.627Z,15.5
2018-12-31T10:52:49.597Z,15.5
2018-12-31T10:54:49.609Z,16.3
2018-12-31T10:56:49.780Z,16.3
2018-12-31T10:58:49.729Z,15.3
2018-12-31T11:00:49.793Z,15.3
2018-12-31T11:02:49.784Z,15.4
2018-12-31T11:04:49.850Z,16.5
2018-12-31T11:06:50.071Z,16.1
2018-12-31T11:08:50.040Z,16.0
2018-12-31T11:10:50.016Z,16.0
2018-12-31T11:12:50.114Z,17.0
2018-12-31T11:14:50.035Z,17.0
2018-12-31T11:16:50.163Z,17.1
2018-12-31T11:18:50.136Z,17.0
2018-12-31T11:20:50.153Z,16.7
2018-12-31T11:22:50.138Z,16.9
2018-12-31T11:24:50.087Z,17.2
2018-12-31T11:26:50.367Z,16.8
2018-12-31T11:28:50.355Z,16.8
2018-12-31T11:30:51.686Z,16.8
2018-12-31T11:32:49.797Z,16.8
2018-12-31T11:34:50.032Z,17.6
2018-12-31T11:36:50.224Z,16.6
2018-12-31T11:38:50.200Z,16.6
2018-12-31T11:40:50.183Z,17.3
2018-12-31T11:42:50.230Z,17.0
2018-12-31T11:44:50.161Z,16.3
2018-12-31T11:46:50.390Z,16.3
2018-12-31T11:48:50.318Z,14.7
2018-12-31T11:50:50.362Z,14.7
2018-12-31T11:52:49.538Z,15.2
2018-12-31T11:54:49.538Z,14.5
2018-12-31T11:56:49.792Z,15.6
2018-12-31T11:58:49.774Z,15.6
2018-12-31T12:00:49.763Z,15.2
2018-12-31T12:02:49.830Z,14.4
2018-12-31T12:04:49.952Z,14.8
2018-12-31T12:06:50.011Z,15.2
2018-12-31T12:08:50.081Z,15.2
2018-12-31T12:10:50.069Z,15.0
2018-12-31T12:12:50.120Z,13.9
2018-12-31T12:14:50.161Z,13.9
2018-12-31T12:16:49.438Z,13.9
2018-12-31T12:18:50.409Z,13.8
2018-12-31T12:20:49.459Z,14.3
2018-12-31T12:22:49.591Z,14.5
2018-12-31T12:24:49.563Z,13.4
2018-12-31T12:26:49.826Z,13.4
2018-12-31T12:28:49.838Z,14.5
2018-12-31T12:30:49.788Z,13.6
2018-12-31T12:32:49.558Z,13.2
2018-12-31T12:34:50.080Z,13.2
2018-12-31T12:36:50.188Z,12.7
2018-12-31T12:38:50.215Z,13.2
2018-12-31T12:40:50.236Z,11.4
2018-12-31T12:42:50.205Z,11.8
2018-12-31T12:44:50.289Z,10.8
2018-12-31T12:46:49.814Z,10.8
2018-12-31T12:48:49.825Z,10.6
2018-12-31T12:50:49.874Z,10.9
2018-12-31T12:52:49.961Z,12.2
2018-12-31T12:54:49.963Z,12.2
2018-12-31T12:56:50.154Z,12.2
2018-12-31T12:58:50.138Z,11.1
2018-12-31T13:00:50.141Z,10.9
2018-12-31T13:02:50.190Z,10.8
2018-12-31T13:04:49.632Z,10.8
2018-12-31T13:06:49.779Z,10.4
2018-12-31T13:08:49.812Z,10.9
2018-12-31T13:10:49.814Z,11.1
2018-12-31T13:12:49.909Z,11.1
2018-12-31T13:14:49.946Z,12.4
2018-12-31T13:16:50.430Z,12.4
2018-12-31T13:18:50.418Z,11.8
2018-12-31T13:20:49.543Z,12.4
2018-12-31T13:22:49.544Z,13.1
2018-12-31T13:24:49.640Z,13.1
2018-12-31T13:26:49.899Z,12.9
2018-12-31T13:28:49.881Z,14.0
2018-12-31T13:30:50.214Z,14.5
2018-12-31T13:32:50.262Z,13.8
2018-12-31T13:34:49.736Z,13.8
2018-12-31T13:36:49.941Z,13.5
2018-12-31T13:38:49.920Z,13.1
2018-12-31T13:40:49.931Z,12.1
2018-12-31T13:42:49.950Z,12.1
2018-12-31T13:44:49.959Z,11.9
2018-12-31T13:46:50.372Z,10.9
2018-12-31T13:48:50.390Z,10.7
2018-12-31T13:50:49.492Z,10.7
2018-12-31T13:52:49.446Z,11.6
2018-12-31T13:54:49.536Z,13.2
2018-12-31T13:56:49.701Z,12.2
2018-12-31T13:58:49.707Z,11.8
2018-12-31T14:00:49.718Z,11.8
2018-12-31T14:02:49.659Z,12.4
2018-12-31T14:04:49.951Z,11.5
2018-12-31T14:06:50.180Z,12.5
2018-12-31T14:08:50.186Z,12.4
2018-12-31T14:10:50.271Z,12.4
2018-12-31T14:12:50.354Z,13.1
2018-12-31T14:14:49.633Z,11.9
2018-12-31T14:16:49.821Z,13.3
2018-12-31T14:18:49.819Z,12.3
2018-12-31T14:20:49.864Z,12.3
2018-12-31T14:22:49.859Z,13.3
2018-12-31T14:24:49.831Z,13.8
2018-12-31T14:26:50.050Z,13.6
2018-12-31T14:28:50.051Z,14.1
2018-12-31T14:30:50.066Z,14.1
2018-12-31T14:32:50.297Z,13.9
2018-12-31T14:34:49.881Z,15.2
2018-12-31T14:36:49.970Z,15.2
2018-12-31T14:38:50.036Z,14.9
2018-12-31T14:40:50.070Z,14.9
2018-12-31T14:42:50.173Z,16.1
2018-12-31T14:44:50.172Z,14.9
2018-12-31T14:46:50.438Z,16.2
2018-12-31T14:48:50.372Z,15.5
2018-12-31T14:50:50.430Z,15.5
2018-12-31T14:52:49.450Z,16.1
2018-12-31T14:54:49.470Z,15.9
2018-12-31T14:56:49.611Z,15.9
2018-12-31T14:58:49.820Z,15.9
2018-12-31T15:00:49.854Z,15.3
2018-12-31T15:02:49.907Z,16.2
2018-12-31T15:04:50.387Z,16.6
2018-12-31T15:06:49.653Z,16.6
2018-12-31T15:08:49.675Z,16.6
2018-12-31T15:10:49.653Z,17.4
2018-12-31T15:12:49.683Z,18.2
2018-12-31T15:14:49.655Z,18.0
2018-12-31T15:16:50.108Z,19.2
2018-12-31T15:18:50.092Z,19.2
2018-12-31T15:20:50.158Z,18.4
2018-12-31T15:22:50.161Z,17.9
2018-12-31T15:24:50.302Z,17.8
2018-12-31T15:26:49.487Z,19.3
2018-12-31T15:28:49.542Z,19.3
2018-12-31T15:30:49.579Z,19.7
2018-12-31T15:32:49.578Z,18.5
2018-12-31T15:34:49.989Z,18.2
2018-12-31T15:36:50.252Z,18.2
2018-12-31T15:38:50.243Z,17.6
2018-12-31T15:40:50.301Z,17.7
2018-12-31T15:42:49.837Z,16.0
2018-12-31T15:44:49.848Z,16.6
2018-12-31T15:46:50.047Z,16.6
2018-12-31T15:48:50.079Z,17.1
2018-12-31T15:50:50.111Z,17.1
2018-12-31T15:52:50.051Z,18.2
2018-12-31T15:54:50.059Z,18.0
2018-12-31T15:56:50.276Z,19.2
2018-12-31T15:58:50.314Z,19.2
2018-12-31T16:00:50.318Z,19.4
2018-12-31T16:02:50.359Z,19.5
2018-12-31T16:04:49.879Z,19.5
2018-12-31T16:06:50.094Z,18.6
2018-12-31T16:08:49.652Z,18.6
2018-12-31T16:10:49.672Z,20.0
2018-12-31T16:12:49.608Z,21.8
2018-12-31T16:14:49.668Z,20.6
2018-12-31T16:16:49.914Z,20.6
2018-12-31T16:18:50.093Z,21.7
2018-12-31T16:20:50.115Z,23.4
2018-12-31T16:22:50.173Z,23.4
2018-12-31T16:24:50.154Z,22.3
2018-12-31T16:26:49.433Z,22.3
2018-12-31T16:28:49.571Z,23.7
2018-12-31T16:30:49.582Z,24.1
2018-12-31T16:32:49.675Z,24.1
2018-12-31T16:34:49.557Z,24.1
2018-12-31T16:36:49.786Z,26.2
2018-12-31T16:38:49.735Z,25.6
2018-12-31T16:40:49.690Z,26.8
2018-12-31T16:42:49.653Z,27.3
2018-12-31T16:44:49.646Z,27.3
2018-12-31T16:46:49.800Z,32.7
2018-12-31T16:48:49.875Z,32.7
2018-12-31T16:50:49.916Z,34.0
2018-12-31T16:52:49.975Z,36.0
2018-12-31T16:54:50.029Z,37.8
2018-12-31T16:56:50.230Z,37.8
2018-12-31T16:58:50.284Z,48.6
2018-12-31T17:00:49.852Z,44.8
2018-12-31T17:02:49.910Z,44.8
2018-12-31T17:04:50.221Z,44.4
2018-12-31T17:06:50.464Z,44.4
2018-12-31T17:08:49.467Z,42.8
2018-12-31T17:10:49.540Z,38.8
2018-12-31T17:12:49.744Z,37.7
2018-12-31T17:14:49.807Z,34.9
2018-12-31T17:16:50.013Z,34.9
2018-12-31T17:18:50.015Z,33.8
2018-12-31T17:20:50.126Z,60.7
2018-12-31T17:22:50.193Z,86.0
2018-12-31T17:24:50.169Z,86.0
2018-12-31T17:26:49.862Z,55.3
2018-12-31T17:28:49.920Z,71.8
2018-12-31T17:30:50.016Z,44.5
2018-12-31T17:32:50.025Z,69.5
2018-12-31T17:34:50.264Z,69.5
2018-12-31T17:36:49.508Z,52.4
2018-12-31T17:38:49.641Z,49.3
2018-12-31T17:40:49.709Z,59.1
2018-12-31T17:42:49.769Z,59.1
2018-12-31T17:44:49.812Z,37.2
2018-12-31T17:46:49.964Z,35.7
2018-12-31T17:48:49.966Z,36.2
2018-12-31T17:50:50.036Z,36.0
2018-12-31T17:52:50.104Z,36.0
2018-12-31T17:54:50.051Z,38.0
2018-12-31T17:56:50.438Z,37.1
2018-12-31T17:58:49.583Z,36.2
2018-12-31T18:00:49.777Z,38.7
2018-12-31T18:02:49.858Z,38.7
2018-12-31T18:04:50.342Z,37.2
2018-12-31T18:06:49.621Z,40.4
2018-12-31T18:08:49.608Z,36.1
2018-12-31T18:10:49.708Z,39.7
2018-12-31T18:12:49.726Z,39.7
2018-12-31T18:14:49.827Z,45.7
2018-12-31T18:16:50.044Z,40.4
2018-12-31T18:18:50.211Z,36.8
2018-12-31T18:20:50.211Z,36.8
2018-12-31T18:22:50.407Z,35.0
2018-12-31T18:24:50.401Z,35.0
2018-12-31T18:26:49.566Z,35.0
2018-12-31T18:28:49.669Z,35.0
2018-12-31T18:30:49.676Z,33.9
2018-12-31T18:32:49.653Z,33.9
2018-12-31T18:34:49.929Z,33.7
2018-12-31T18:36:50.150Z,32.6
2018-12-31T18:38:50.171Z,32.1
2018-12-31T18:40:50.202Z,32.1
2018-12-31T18:42:50.236Z,32.1
2018-12-31T18:44:49.437Z,32.5
2018-12-31T18:46:49.668Z,31.7
2018-12-31T18:48:49.717Z,33.3
2018-12-31T18:50:49.752Z,33.3
2018-12-31T18:52:49.945Z,33.2
2018-12-31T18:54:50.009Z,32.4
2018-12-31T18:56:50.253Z,42.0
2018-12-31T18:58:50.351Z,35.6
2018-12-31T19:00:49.435Z,35.6
2018-12-31T19:02:49.459Z,35.9
2018-12-31T19:04:49.991Z,38.5
2018-12-31T19:06:50.245Z,38.2
2018-12-31T19:08:50.430Z,38.2
2018-12-31T19:10:49.500Z,38.0
2018-12-31T19:12:49.572Z,38.4
2018-12-31T19:14:49.680Z,38.4
2018-12-31T19:16:49.942Z,40.3
2018-12-31T19:18:49.435Z,40.3
2018-12-31T19:20:49.511Z,39.3
2018-12-31T19:22:49.622Z,38.3
2018-12-31T19:24:49.638Z,38.1
2018-12-31T19:26:49.951Z,38.1
2018-12-31T19:28:49.947Z,40.5
2018-12-31T19:30:50.030Z,41.9
2018-12-31T19:32:50.000Z,41.9
2018-12-31T19:34:50.297Z,40.3
2018-12-31T19:36:49.645Z,40.3
2018-12-31T19:38:49.735Z,37.2
2018-12-31T19:40:49.823Z,37.2
2018-12-31T19:42:49.839Z,35.3
2018-12-31T19:44:50.017Z,36.6
2018-12-31T19:46:50.208Z,36.6
2018-12-31T19:48:50.189Z,36.8
2018-12-31T19:50:50.190Z,36.8
2018-12-31T19:52:50.105Z,42.1
2018-12-31T19:54:50.261Z,39.3
2018-12-31T19:56:49.531Z,38.4
2018-12-31T19:58:49.613Z,38.4
2018-12-31T20:00:49.728Z,39.3
2018-12-31T20:02:49.739Z,38.6
2018-12-31T20:04:49.994Z,37.4
2018-12-31T20:06:50.195Z,39.7
2018-12-31T20:08:50.238Z,39.7
2018-12-31T20:10:50.272Z,38.2
2018-12-31T20:12:50.242Z,41.3
2018-12-31T20:14:50.301Z,38.1
2018-12-31T20:16:49.547Z,38.1
2018-12-31T20:18:50.027Z,42.6
2018-12-31T20:20:50.094Z,37.7
2018-12-31T20:22:50.179Z,37.3
2018-12-31T20:24:50.301Z,38.2
2018-12-31T20:26:50.138Z,38.2
2018-12-31T20:28:50.196Z,74.3
2018-12-31T20:30:50.220Z,74.3
2018-12-31T20:32:50.394Z,63.2
2018-12-31T20:34:49.712Z,63.2
2018-12-31T20:36:49.948Z,44.3
2018-12-31T20:38:49.952Z,44.3
2018-12-31T20:40:50.017Z,39.3
2018-12-31T20:42:50.028Z,38.6
2018-12-31T20:44:50.149Z,38.6
2018-12-31T20:46:49.527Z,39.8
2018-12-31T20:48:49.632Z,39.8
2018-12-31T20:50:49.665Z,38.5
2018-12-31T20:52:49.646Z,39.7
2018-12-31T20:54:49.690Z,38.4
2018-12-31T20:56:49.799Z,38.4
2018-12-31T20:58:49.839Z,39.7
2018-12-31T21:00:49.833Z,39.2
2018-12-31T21:02:49.838Z,39.2
2018-12-31T21:04:50.172Z,40.0
2018-12-31T21:06:49.458Z,40.0
2018-12-31T21:08:49.579Z,41.2
2018-12-31T21:10:49.574Z,39.0
2018-12-31T21:12:49.686Z,39.2
2018-12-31T21:14:49.720Z,39.2
2018-12-31T21:16:49.955Z,40.6
2018-12-31T21:18:49.978Z,38.5
2018-12-31T21:20:50.113Z,38.5
2018-12-31T21:22:50.141Z,40.1
2018-12-31T21:24:50.231Z,40.1
2018-12-31T21:26:49.523Z,42.0
2018-12-31T21:28:49.571Z,44.3
2018-12-31T21:30:49.808Z,44.8
2018-12-31T21:32:49.845Z,44.8
2018-12-31T21:34:50.130Z,47.2
2018-12-31T21:36:50.389Z,47.2
2018-12-31T21:38:49.603Z,44.7
2018-12-31T21:40:49.581Z,45.7
2018-12-31T21:42:49.655Z,45.7
2018-12-31T21:44:49.670Z,48.2
2018-12-31T21:46:49.757Z,49.2
2018-12-31T21:48:49.744Z,47.0
2018-12-31T21:50:50.163Z,69.6
2018-12-31T21:52:50.121Z,69.6
2018-12-31T21:54:50.148Z,51.8
2018-12-31T21:56:50.448Z,53.8
2018-12-31T21:58:49.473Z,55.6
2018-12-31T22:00:49.553Z,55.6
2018-12-31T22:02:56.772Z,57.7
2018-12-31T22:04:49.807Z,53.9
2018-12-31T22:06:49.975Z,55.0
2018-12-31T22:08:50.004Z,58.6
2018-12-31T22:10:50.061Z,58.6
2018-12-31T22:12:50.083Z,55.9
2018-12-31T22:14:50.128Z,55.9
2018-12-31T22:16:50.353Z,58.1
2018-12-31T22:18:50.320Z,55.7
2018-12-31T22:20:50.444Z,52.8
2018-12-31T22:22:49.581Z,52.8
2018-12-31T22:24:49.954Z,51.8
2018-12-31T22:26:51.637Z,53.5
2018-12-31T22:28:49.716Z,52.4
2018-12-31T22:30:49.796Z,53.4
2018-12-31T22:32:49.887Z,53.4
2018-12-31T22:34:50.253Z,55.6
2018-12-31T22:36:49.497Z,57.6
2018-12-31T22:38:49.623Z,57.7
2018-12-31T22:40:49.637Z,57.7
2018-12-31T22:42:49.651Z,56.3
2018-12-31T22:44:49.668Z,59.1
2018-12-31T22:46:49.809Z,62.5
2018-12-31T22:48:49.811Z,62.5
2018-12-31T22:50:50.214Z,60.1
2018-12-31T22:52:50.267Z,64.1
2018-12-31T22:54:50.253Z,68.3
2018-12-31T22:56:49.492Z,72.5
2018-12-31T22:58:49.531Z,72.5
2018-12-31T23:00:49.696Z,85.5
2018-12-31T23:02:49.743Z,85.5
2018-12-31T23:04:49.990Z,248.1
2018-12-31T23:06:50.168Z,248.1
2018-12-31T23:08:50.310Z,251.7
2018-12-31T23:10:50.338Z,304.4
2018-12-31T23:12:50.437Z,405.1
2018-12-31T23:14:49.590Z,560.9
2018-12-31T23:16:50.210Z,587.1
2018-12-31T23:18:50.263Z,604.4
2018-12-31T23:20:50.239Z,604.4
2018-12-31T23:22:50.360Z,788.5
2018-12-31T23:24:50.422Z,649.5
2018-12-31T23:26:49.664Z,859.6
2018-12-31T23:28:52.612Z,859.6
2018-12-31T23:30:49.899Z,787.5
2018-12-31T23:32:49.952Z,431.5
2018-12-31T23:34:50.289Z,374.7
2018-12-31T23:36:49.511Z,374.7
2018-12-31T23:38:49.564Z,323.6
2018-12-31T23:40:49.630Z,289.3
2018-12-31T23:42:49.707Z,197.7
2018-12-31T23:44:52.975Z,177.5
2018-12-31T23:46:49.573Z,177.5
2018-12-31T23:48:49.703Z,184.8
2018-12-31T23:50:49.943Z,219.9
2018-12-31T23:52:49.963Z,165.2
2018-12-31T23:54:50.014Z,171.3
2018-12-31T23:56:50.653Z,171.3
2018-12-31T23:58:49.762Z,145.9
